createdAt,value
2022-09-16T00:00:18.987Z,4.20
2022-09-16T00:02:45.460Z,4.28
2022-09-16T00:05:11.956Z,4.03
2022-09-16T00:07:38.567Z,3.88
2022-09-16T00:10:06.089Z,3.78
2022-09-16T00:12:32.808Z,4.28
2022-09-16T00:14:59.166Z,3.90
2022-09-16T00:17:25.589Z,4.35
2022-09-16T00:19:51.972Z,4.15
2022-09-16T00:22:18.732Z,4.00
2022-09-16T00:24:45.096Z,4.07
2022-09-16T00:27:13.070Z,4.63
2022-09-16T00:29:39.467Z,4.38
2022-09-16T00:32:05.892Z,4.95
2022-09-16T00:34:32.266Z,5.13
2022-09-16T00:36:58.656Z,4.75
2022-09-16T00:39:25.370Z,4.07
2022-09-16T00:41:51.788Z,4.38
2022-09-16T00:44:55.350Z,4.68
2022-09-16T00:47:44.629Z,4.55
2022-09-16T00:50:20.546Z,4.65
2022-09-16T00:52:48.051Z,4.63
2022-09-16T00:55:19.360Z,5.13
2022-09-16T00:57:46.862Z,5.07
2022-09-16T01:00:14.055Z,4.72
2022-09-16T01:02:44.147Z,4.82
2022-09-16T01:05:15.435Z,4.28
2022-09-16T01:07:52.311Z,4.70
2022-09-16T01:10:22.756Z,4.53
2022-09-16T01:12:54.567Z,4.50
2022-09-16T01:15:26.407Z,4.68
2022-09-16T01:18:21.508Z,4.32
2022-09-16T01:20:47.815Z,5.28
2022-09-16T01:23:29.347Z,4.57
2022-09-16T01:26:08.848Z,5.25
2022-09-16T01:28:45.944Z,4.35
2022-09-16T01:31:31.434Z,5.22
2022-09-16T01:34:33.310Z,5.38
2022-09-16T01:37:13.046Z,4.95
2022-09-16T01:39:42.344Z,5.50
2022-09-16T01:42:34.943Z,4.65
2022-09-16T01:45:33.398Z,4.78
2022-09-16T01:48:20.129Z,4.45
2022-09-16T01:50:52.837Z,5.25
2022-09-16T01:53:24.444Z,4.82
2022-09-16T01:56:18.611Z,4.70
2022-09-16T01:58:48.090Z,4.50
2022-09-16T02:01:55.043Z,4.53
2022-09-16T02:04:39.929Z,4.80
2022-09-16T02:07:10.715Z,6.00
2022-09-16T02:09:47.684Z,5.05
2022-09-16T02:12:20.888Z,5.63
2022-09-16T02:14:49.026Z,5.50
2022-09-16T02:17:20.240Z,5.05
2022-09-16T02:19:53.513Z,4.88
2022-09-16T02:22:25.703Z,5.60
2022-09-16T02:24:52.914Z,4.60
2022-09-16T02:27:22.981Z,4.78
2022-09-16T02:29:55.742Z,5.55
2022-09-16T02:32:25.976Z,5.00
2022-09-16T02:34:54.592Z,5.00
2022-09-16T02:37:36.564Z,4.57
2022-09-16T02:40:10.225Z,4.85
2022-09-16T02:42:36.668Z,5.35
2022-09-16T02:45:03.598Z,5.03
2022-09-16T02:47:37.433Z,5.05
2022-09-16T02:50:27.286Z,5.10
2022-09-16T02:53:02.556Z,5.90
2022-09-16T02:55:38.742Z,5.75
2022-09-16T02:58:06.615Z,5.45
2022-09-16T03:00:39.757Z,5.45
2022-09-16T03:03:06.350Z,5.00
2022-09-16T03:05:32.836Z,5.03
2022-09-16T03:08:02.998Z,5.10
2022-09-16T03:10:36.665Z,5.72
2022-09-16T03:13:34.716Z,5.47
2022-09-16T03:16:45.365Z,5.47
2022-09-16T03:19:36.018Z,5.50
2022-09-16T03:22:32.215Z,4.95
2022-09-16T03:25:09.776Z,5.22
2022-09-16T03:27:44.533Z,4.78
2022-09-16T03:30:11.584Z,4.82
2022-09-16T03:32:48.866Z,5.07
2022-09-16T03:35:19.194Z,5.03
2022-09-16T03:37:46.995Z,4.57
2022-09-16T03:40:18.419Z,4.38
2022-09-16T03:42:45.378Z,4.65
2022-09-16T03:45:17.742Z,5.13
2022-09-16T03:47:46.510Z,4.70
2022-09-16T03:50:14.246Z,5.28
2022-09-16T03:52:40.622Z,4.70
2022-09-16T03:55:07.908Z,4.35
2022-09-16T03:57:34.593Z,4.10
2022-09-16T04:00:01.218Z,4.57
2022-09-16T04:02:27.718Z,4.22
2022-09-16T04:04:54.136Z,4.38
2022-09-16T04:07:20.736Z,4.18
2022-09-16T04:09:47.194Z,4.00
2022-09-16T04:12:14.907Z,4.32
2022-09-16T04:14:41.361Z,4.60
2022-09-16T04:17:08.735Z,4.50
2022-09-16T04:19:35.182Z,4.10
2022-09-16T04:22:01.582Z,4.22
2022-09-16T04:24:27.992Z,3.90
2022-09-16T04:26:54.355Z,3.70
2022-09-16T04:29:20.719Z,3.38
2022-09-16T04:31:47.122Z,3.67
2022-09-16T04:34:13.608Z,3.88
2022-09-16T04:36:40.170Z,3.70
2022-09-16T04:39:06.585Z,3.80
2022-09-16T04:41:32.979Z,3.75
2022-09-16T04:44:00.326Z,3.75
2022-09-16T04:46:28.732Z,3.42
2022-09-16T04:48:56.347Z,3.42
2022-09-16T04:51:23.951Z,3.40
2022-09-16T04:53:50.403Z,3.20
2022-09-16T04:56:22.231Z,3.75
2022-09-16T04:58:51.286Z,3.22
2022-09-16T05:01:23.857Z,3.45
2022-09-16T05:03:53.419Z,3.53
2022-09-16T05:06:22.766Z,3.70
2022-09-16T05:08:50.588Z,3.78
2022-09-16T05:11:20.340Z,4.22
2022-09-16T05:13:46.856Z,3.50
2022-09-16T05:16:16.230Z,3.67
2022-09-16T05:18:44.169Z,4.07
2022-09-16T05:21:13.650Z,4.68
2022-09-16T05:23:46.900Z,4.45
2022-09-16T05:26:17.536Z,3.95
2022-09-16T05:28:43.909Z,4.07
2022-09-16T05:31:11.818Z,4.22
2022-09-16T05:33:44.696Z,4.10
2022-09-16T05:36:14.350Z,4.93
2022-09-16T05:38:40.966Z,4.40
2022-09-16T05:41:07.960Z,4.35
2022-09-16T05:43:36.435Z,4.53
2022-09-16T05:46:04.890Z,3.95
2022-09-16T05:48:32.310Z,4.80
2022-09-16T05:51:04.778Z,4.60
2022-09-16T05:53:33.653Z,4.43
2022-09-16T05:56:06.242Z,4.50
2022-09-16T05:58:34.290Z,4.80
2022-09-16T06:01:11.115Z,4.78
2022-09-16T06:03:39.496Z,5.68
2022-09-16T06:06:14.651Z,5.43
2022-09-16T06:08:41.424Z,5.05
2022-09-16T06:11:10.843Z,5.00
2022-09-16T06:13:38.063Z,4.78
2022-09-16T06:16:06.564Z,4.93
2022-09-16T06:18:34.010Z,5.25
2022-09-16T06:21:05.203Z,4.80
2022-09-16T06:23:31.786Z,4.78
2022-09-16T06:26:14.008Z,4.75
2022-09-16T06:28:41.196Z,4.45
2022-09-16T06:31:12.991Z,4.68
2022-09-16T06:33:40.111Z,5.15
2022-09-16T06:36:08.064Z,4.63
2022-09-16T06:38:34.571Z,4.78
2022-09-16T06:41:03.247Z,4.97
2022-09-16T06:43:29.896Z,4.90
2022-09-16T06:46:02.174Z,4.32
2022-09-16T06:48:29.566Z,4.57
2022-09-16T06:51:06.073Z,4.68
2022-09-16T06:56:04.836Z,5.18
2022-09-16T06:58:36.488Z,4.10
2022-09-16T07:01:11.796Z,4.18
2022-09-16T07:03:40.443Z,4.15
2022-09-16T07:06:08.117Z,4.05
2022-09-16T07:08:36.454Z,4.10
2022-09-16T07:11:11.510Z,5.07
2022-09-16T07:13:37.959Z,4.35
2022-09-16T07:16:19.706Z,4.53
2022-09-16T07:18:48.228Z,3.65
2022-09-16T07:21:17.075Z,3.97
2022-09-16T07:23:44.773Z,4.43
2022-09-16T07:26:14.356Z,4.82
2022-09-16T07:28:42.540Z,3.67
2022-09-16T07:31:13.446Z,3.90
2022-09-16T07:33:42.342Z,4.22
2022-09-16T07:36:10.958Z,4.03
2022-09-16T07:38:37.930Z,3.88
2022-09-16T07:41:11.307Z,3.97
2022-09-16T07:43:41.627Z,3.58
2022-09-16T07:46:10.621Z,4.47
2022-09-16T07:48:37.863Z,4.38
2022-09-16T07:51:10.551Z,4.10
2022-09-16T07:53:37.651Z,3.72
2022-09-16T07:56:06.810Z,4.00
2022-09-16T07:58:33.351Z,3.85
2022-09-16T08:01:04.257Z,4.20
2022-09-16T08:03:32.606Z,4.15
2022-09-16T08:06:05.760Z,4.07
2022-09-16T08:08:33.038Z,3.85
2022-09-16T08:11:00.642Z,3.50
2022-09-16T08:13:29.211Z,4.32
2022-09-16T08:15:59.368Z,4.20
2022-09-16T08:18:25.772Z,4.15
2022-09-16T08:20:52.134Z,3.83
2022-09-16T08:23:18.937Z,4.22
2022-09-16T08:25:45.540Z,4.18
2022-09-16T08:28:16.608Z,4.32
2022-09-16T08:30:43.925Z,4.88
2022-09-16T08:33:10.790Z,4.60
2022-09-16T08:35:37.217Z,4.90
2022-09-16T08:38:03.782Z,5.22
2022-09-16T08:40:36.884Z,5.03
2022-09-16T08:43:12.506Z,5.00
2022-09-16T08:45:41.960Z,4.90
2022-09-16T08:48:28.559Z,5.20
2022-09-16T08:50:58.918Z,5.22
2022-09-16T08:53:36.847Z,5.00
2022-09-16T08:56:07.438Z,5.50
2022-09-16T08:58:45.994Z,5.50
2022-09-16T09:01:23.376Z,6.05
2022-09-16T09:03:50.045Z,5.22
2022-09-16T09:07:00.044Z,5.55
2022-09-16T09:09:41.605Z,4.85
2022-09-16T09:12:27.083Z,5.00
2022-09-16T09:15:17.330Z,4.68
2022-09-16T09:18:10.810Z,4.70
2022-09-16T09:20:47.899Z,3.90
2022-09-16T09:23:47.387Z,3.50
2022-09-16T09:26:22.131Z,3.10
2022-09-16T09:29:00.523Z,2.60
2022-09-16T09:31:33.598Z,3.17
2022-09-16T09:34:26.731Z,3.67
2022-09-16T09:36:56.010Z,3.90
2022-09-16T09:39:59.738Z,5.10
2022-09-16T09:42:34.149Z,5.07
2022-09-16T09:45:05.432Z,5.68
2022-09-16T09:47:47.921Z,5.70
2022-09-16T09:50:20.544Z,4.90
2022-09-16T09:53:08.995Z,6.00
2022-09-16T09:55:35.619Z,5.20
2022-09-16T09:58:12.159Z,5.38
2022-09-16T10:03:14.716Z,5.45
2022-09-16T10:05:42.214Z,5.47
2022-09-16T10:08:20.874Z,5.53
2022-09-16T10:10:53.794Z,5.20
2022-09-16T10:13:21.671Z,5.32
2022-09-16T10:15:53.282Z,4.28
2022-09-16T10:18:21.843Z,4.63
2022-09-16T10:21:06.982Z,4.60
2022-09-16T10:23:35.324Z,5.18
2022-09-16T10:26:20.719Z,5.68
2022-09-16T10:28:55.531Z,5.47
2022-09-16T10:31:24.267Z,5.57
2022-09-16T10:33:50.823Z,5.93
2022-09-16T10:36:27.759Z,5.22
2022-09-16T10:39:02.246Z,5.88
2022-09-16T10:41:42.544Z,5.68
2022-09-16T10:44:21.433Z,5.30
2022-09-16T10:46:54.365Z,5.97
2022-09-16T10:49:26.580Z,5.57
2022-09-16T10:52:14.616Z,5.82
2022-09-16T10:54:41.288Z,4.93
2022-09-16T10:57:21.714Z,4.80
2022-09-16T10:59:59.630Z,5.32
2022-09-16T11:02:44.106Z,4.40
2022-09-16T11:05:26.211Z,4.63
2022-09-16T11:08:02.213Z,4.57
2022-09-16T11:10:46.935Z,4.28
2022-09-16T11:13:32.819Z,4.50
2022-09-16T11:16:17.614Z,4.05
2022-09-16T11:18:52.868Z,3.80
2022-09-16T11:21:46.960Z,4.35
2022-09-16T11:24:32.238Z,3.65
2022-09-16T11:27:13.391Z,4.43
2022-09-16T11:30:03.503Z,4.60
2022-09-16T11:32:46.529Z,4.28
2022-09-16T11:35:32.348Z,1.50
2022-09-16T11:38:24.817Z,1.20
2022-09-16T11:41:00.204Z,0.60
2022-09-16T11:43:44.851Z,0.80
2022-09-16T11:46:30.151Z,0.70
2022-09-16T11:49:14.964Z,0.60
2022-09-16T11:51:53.508Z,0.80
2022-09-16T11:54:33.636Z,1.00
2022-09-16T11:57:06.131Z,1.20
2022-09-16T11:59:44.724Z,1.15
2022-09-16T12:02:20.763Z,1.60
2022-09-16T12:05:07.036Z,1.80
2022-09-16T12:07:45.212Z,1.42
2022-09-16T12:10:22.672Z,1.90
2022-09-16T12:12:54.207Z,2.20
2022-09-16T12:15:26.485Z,2.20
2022-09-16T12:18:01.850Z,2.15
2022-09-16T12:20:37.135Z,2.47
2022-09-16T12:23:17.419Z,2.83
2022-09-16T12:26:14.156Z,2.58
2022-09-16T12:29:06.509Z,2.20
2022-09-16T12:31:53.609Z,2.15
2022-09-16T12:34:26.514Z,1.70
2022-09-16T12:37:00.908Z,2.25
2022-09-16T12:39:28.668Z,2.20
2022-09-16T12:42:32.730Z,2.00
2022-09-16T12:45:22.080Z,2.05
2022-09-16T12:48:19.663Z,1.90
2022-09-16T12:50:56.668Z,2.10
2022-09-16T12:53:50.021Z,2.03
2022-09-16T12:56:19.388Z,2.30
2022-09-16T12:59:17.664Z,2.45
2022-09-16T13:01:50.325Z,2.50
2022-09-16T13:04:31.102Z,2.40
2022-09-16T13:07:05.053Z,2.83
2022-09-16T13:09:38.838Z,2.85
2022-09-16T13:15:07.308Z,2.80
2022-09-16T13:17:42.827Z,2.80
2022-09-16T13:20:12.186Z,2.97
2022-09-16T13:22:47.545Z,2.40
2022-09-16T13:25:13.883Z,2.67
2022-09-16T13:27:56.057Z,2.42
2022-09-16T13:30:36.410Z,2.80
2022-09-16T13:33:08.823Z,2.80
2022-09-16T13:35:38.996Z,2.95
2022-09-16T13:38:23.183Z,3.10
2022-09-16T13:41:01.439Z,3.17
2022-09-16T13:43:46.786Z,3.58
2022-09-16T13:46:27.449Z,2.78
2022-09-16T13:49:04.055Z,3.05
2022-09-16T13:54:04.168Z,3.33
2022-09-16T13:56:42.113Z,3.40
2022-09-16T13:59:33.414Z,3.15
2022-09-16T14:02:06.504Z,2.55
2022-09-16T14:04:54.320Z,2.78
2022-09-16T14:07:26.768Z,2.33
2022-09-16T14:10:04.842Z,2.95
2022-09-16T14:13:04.195Z,3.22
2022-09-16T14:15:36.652Z,2.83
2022-09-16T14:18:03.976Z,3.17
2022-09-16T14:20:33.130Z,3.72
2022-09-16T14:23:17.482Z,3.30
2022-09-16T14:25:43.852Z,3.55
2022-09-16T14:28:22.069Z,3.45
2022-09-16T14:30:52.866Z,3.15
2022-09-16T14:33:23.369Z,4.85
2022-09-16T14:35:52.182Z,4.20
2022-09-16T14:38:44.494Z,4.05
2022-09-16T14:41:10.559Z,3.63
2022-09-16T14:43:38.768Z,3.50
2022-09-16T14:46:07.833Z,3.30
2022-09-16T14:48:38.971Z,3.28
2022-09-16T14:51:16.692Z,3.47
2022-09-16T14:54:11.655Z,3.10
2022-09-16T14:56:39.038Z,3.08
2022-09-16T14:59:06.633Z,2.88
2022-09-16T15:01:33.060Z,3.33
2022-09-16T15:04:23.529Z,3.47
2022-09-16T15:06:58.827Z,3.70
2022-09-16T15:09:45.228Z,3.83
2022-09-16T15:12:29.505Z,3.35
2022-09-16T15:14:57.175Z,3.42
2022-09-16T15:17:27.327Z,3.15
2022-09-16T15:19:58.954Z,3.38
2022-09-16T15:22:26.869Z,3.15
2022-09-16T15:24:56.757Z,3.40
2022-09-16T15:27:25.933Z,3.10
2022-09-16T15:30:01.070Z,2.50
2022-09-16T15:32:31.624Z,2.88
2022-09-16T15:35:04.153Z,2.83
2022-09-16T15:37:33.098Z,2.83
2022-09-16T15:40:28.749Z,3.13
2022-09-16T15:43:27.899Z,3.08
2022-09-16T15:46:00.253Z,3.38
2022-09-16T15:48:31.747Z,4.28
2022-09-16T15:51:06.281Z,4.20
2022-09-16T15:53:32.599Z,5.32
2022-09-16T15:56:04.371Z,4.60
2022-09-16T15:58:45.644Z,3.70
2022-09-16T16:01:30.331Z,3.95
2022-09-16T16:03:59.040Z,5.32
2022-09-16T16:06:51.768Z,4.63
2022-09-16T16:09:28.682Z,5.28
2022-09-16T16:11:56.021Z,5.95
2022-09-16T16:14:24.499Z,5.05
2022-09-16T16:17:11.872Z,5.07
2022-09-16T16:19:39.089Z,5.10
2022-09-16T16:22:06.939Z,4.13
2022-09-16T16:24:33.811Z,5.70
2022-09-16T16:27:00.481Z,5.95
2022-09-16T16:29:27.119Z,4.68
2022-09-16T16:32:04.404Z,5.13
2022-09-16T16:34:35.658Z,4.40
2022-09-16T16:37:02.981Z,5.00
2022-09-16T16:39:35.178Z,4.95
2022-09-16T16:42:04.974Z,4.68
2022-09-16T16:44:31.857Z,4.88
2022-09-16T16:46:59.383Z,5.82
2022-09-16T16:49:29.867Z,5.63
2022-09-16T16:52:09.611Z,6.40
2022-09-16T16:54:43.676Z,5.70
2022-09-16T16:57:11.132Z,5.60
2022-09-16T16:59:38.607Z,5.50
2022-09-16T17:02:05.501Z,5.93
2022-09-16T17:04:31.882Z,5.20
2022-09-16T17:07:23.980Z,5.13
2022-09-16T17:09:49.351Z,5.63
2022-09-16T17:12:18.132Z,5.88
2022-09-16T17:14:44.684Z,5.47
2022-09-16T17:17:11.142Z,6.40
2022-09-16T17:19:38.546Z,6.93
2022-09-16T17:22:05.112Z,6.75
2022-09-16T17:24:34.528Z,7.45
2022-09-16T17:27:01.598Z,6.93
2022-09-16T17:29:29.245Z,6.57
2022-09-16T17:32:00.588Z,6.30
2022-09-16T17:34:28.078Z,5.75
2022-09-16T17:36:57.524Z,5.43
2022-09-16T17:39:24.112Z,6.22
2022-09-16T17:41:51.570Z,7.95
2022-09-16T17:44:19.542Z,6.03
2022-09-16T17:46:48.119Z,5.55
2022-09-16T17:49:22.559Z,6.95
2022-09-16T17:51:50.263Z,6.40
2022-09-16T17:54:17.333Z,6.47
2022-09-16T17:56:47.959Z,8.13
2022-09-16T17:59:17.191Z,11.35
2022-09-16T18:01:43.968Z,9.80
2022-09-16T18:04:11.003Z,7.30
2022-09-16T18:06:45.607Z,6.60
2022-09-16T18:09:14.299Z,6.78
2022-09-16T18:11:40.828Z,6.28
2022-09-16T18:14:10.120Z,6.90
2022-09-16T18:16:36.599Z,7.40
2022-09-16T18:19:04.434Z,6.63
2022-09-16T18:21:31.722Z,6.35
2022-09-16T18:24:01.051Z,7.07
2022-09-16T18:26:28.714Z,7.35
2022-09-16T18:29:12.646Z,7.20
2022-09-16T18:31:41.710Z,6.78
2022-09-16T18:34:08.363Z,7.38
2022-09-16T18:36:36.814Z,7.15
2022-09-16T18:39:04.390Z,6.38
2022-09-16T18:41:34.965Z,6.30
2022-09-16T18:44:04.887Z,6.35
2022-09-16T18:46:33.746Z,6.93
2022-09-16T18:49:00.768Z,6.38
2022-09-16T18:51:38.512Z,5.40
2022-09-16T18:54:11.953Z,5.28
2022-09-16T18:56:40.020Z,5.43
2022-09-16T18:59:23.851Z,4.55
2022-09-16T19:01:53.445Z,5.30
2022-09-16T19:04:23.240Z,5.47
2022-09-16T19:06:51.954Z,5.43
2022-09-16T19:09:20.665Z,5.63
2022-09-16T19:11:47.827Z,6.28
2022-09-16T19:14:14.838Z,5.60
2022-09-16T19:16:43.082Z,4.65
2022-09-16T19:19:11.248Z,5.40
2022-09-16T19:21:38.086Z,5.72
2022-09-16T19:24:07.525Z,5.00
2022-09-16T19:26:36.299Z,5.90
2022-09-16T19:29:06.630Z,5.20
2022-09-16T19:31:35.194Z,5.35
2022-09-16T19:34:02.076Z,5.47
2022-09-16T19:36:30.531Z,5.03
2022-09-16T19:38:59.346Z,4.82
2022-09-16T19:41:29.214Z,5.30
2022-09-16T19:43:58.310Z,4.13
2022-09-16T19:46:25.777Z,4.53
2022-09-16T19:48:52.879Z,4.65
2022-09-16T19:51:22.752Z,4.57
2022-09-16T19:53:50.218Z,5.00
2022-09-16T19:56:21.326Z,4.28
2022-09-16T19:58:48.225Z,3.40
2022-09-16T20:01:18.257Z,4.10
2022-09-16T20:03:45.746Z,3.72
2022-09-16T20:06:14.439Z,3.78
2022-09-16T20:08:42.727Z,4.38
2022-09-16T20:11:21.589Z,4.43
2022-09-16T20:14:00.218Z,4.43
2022-09-16T20:16:28.879Z,4.88
2022-09-16T20:18:55.481Z,3.85
2022-09-16T20:21:26.838Z,4.68
2022-09-16T20:23:54.316Z,3.95
2022-09-16T20:26:21.981Z,4.15
2022-09-16T20:28:51.354Z,3.40
2022-09-16T20:31:29.188Z,3.83
2022-09-16T20:33:55.931Z,3.70
2022-09-16T20:36:24.357Z,3.47
2022-09-16T20:38:51.134Z,3.35
2022-09-16T20:41:23.734Z,4.25
2022-09-16T20:43:51.039Z,3.60
2022-09-16T20:46:21.647Z,3.42
2022-09-16T20:48:49.116Z,4.10
2022-09-16T20:51:18.154Z,3.75
2022-09-16T20:53:49.870Z,3.88
2022-09-16T20:56:17.518Z,3.85
2022-09-16T20:58:44.531Z,4.05
2022-09-16T21:01:14.989Z,4.22
2022-09-16T21:03:42.821Z,3.80
2022-09-16T21:06:12.274Z,3.90
2022-09-16T21:08:39.760Z,4.30
2022-09-16T21:11:09.264Z,3.95
2022-09-16T21:13:35.713Z,4.35
2022-09-16T21:16:02.641Z,4.38
2022-09-16T21:18:30.404Z,4.20
2022-09-16T21:21:01.839Z,4.32
2022-09-16T21:23:28.982Z,4.28
2022-09-16T21:25:56.017Z,3.80
2022-09-16T21:28:23.303Z,4.18
2022-09-16T21:30:59.621Z,3.90
2022-09-16T21:33:27.296Z,3.97
2022-09-16T21:35:53.854Z,4.30
2022-09-16T21:38:20.839Z,3.15
2022-09-16T21:40:54.722Z,3.60
2022-09-16T21:43:21.153Z,3.33
2022-09-16T21:45:48.033Z,3.25
2022-09-16T21:48:16.548Z,3.47
2022-09-16T21:50:42.930Z,3.10
2022-09-16T21:53:09.361Z,3.45
2022-09-16T21:55:35.747Z,4.03
2022-09-16T21:58:02.120Z,3.72
2022-09-16T22:00:30.350Z,3.70
2022-09-16T22:02:57.100Z,3.70
2022-09-16T22:05:23.903Z,3.88
2022-09-16T22:07:50.378Z,3.92
2022-09-16T22:10:16.970Z,4.45
2022-09-16T22:12:43.865Z,4.13
2022-09-16T22:15:10.550Z,3.70
2022-09-16T22:17:36.938Z,3.83
2022-09-16T22:20:03.608Z,3.50
2022-09-16T22:22:30.956Z,3.75
2022-09-16T22:24:57.311Z,3.95
2022-09-16T22:27:23.725Z,3.70
2022-09-16T22:29:50.106Z,3.92
2022-09-16T22:32:16.468Z,4.13
2022-09-16T22:34:42.856Z,4.57
2022-09-16T22:37:09.277Z,3.78
2022-09-16T22:39:35.676Z,3.58
2022-09-16T22:42:02.065Z,3.42
2022-09-16T22:44:28.514Z,3.33
2022-09-16T22:46:54.938Z,3.55
2022-09-16T22:49:21.324Z,3.33
2022-09-16T22:51:51.858Z,3.10
2022-09-16T22:54:18.283Z,3.25
2022-09-16T22:56:44.679Z,2.95
2022-09-16T22:59:19.739Z,3.45
2022-09-16T23:01:47.012Z,3.35
2022-09-16T23:04:13.598Z,3.17
2022-09-16T23:06:40.137Z,3.13
2022-09-16T23:09:09.122Z,3.20
2022-09-16T23:11:36.045Z,3.28
2022-09-16T23:14:04.078Z,2.63
2022-09-16T23:16:33.326Z,2.90
2022-09-16T23:19:02.034Z,2.30
2022-09-16T23:21:29.155Z,2.13
2022-09-16T23:23:57.461Z,2.70
2022-09-16T23:26:27.207Z,2.50
2022-09-16T23:28:56.129Z,2.35
2022-09-16T23:31:25.507Z,2.28
2022-09-16T23:33:53.174Z,2.17
2022-09-16T23:36:20.200Z,2.50
2022-09-16T23:38:48.110Z,1.90
2022-09-16T23:41:20.564Z,2.17
2022-09-16T23:43:48.714Z,1.90
2022-09-16T23:46:19.130Z,2.13
2022-09-16T23:48:46.110Z,2.33
2022-09-16T23:51:14.036Z,2.30
2022-09-16T23:53:42.376Z,2.13
2022-09-16T23:56:11.032Z,2.20
2022-09-16T23:58:37.856Z,2.15
